AH1025 / 7T-VJR 7700 Squawk Report (15th of July, 2018)

Aircraft B736 Reg No. 7T-VJR Age 16 years old
Model 737 Jet engines 2 First flight 26-04-02
Registered 22-05-02 Rollout 17-04-02 Delivered 22-05-02
Construction No. 30545 Line No. 1131 Series 6D6
ADSHEX 0A0025 Airline name Air Algérie Owner AeroTurbine Inc
Airfield based Algiers-Houari Boumediene~ ~7T First tracked 2017-07-13 09:44:00

Flight history for 7T-VJR

Route Flight No Date Playback
Charles De Gaulle (CDG) - Houari Boumediene (ALG) AH1215 2018-08-17 18:48:00
Houari Boumediene (ALG) - Charles De Gaulle (CDG) AH1214 2018-08-17 17:14:00
Provence (MRS) - Houari Boumediene (ALG) AH1025 2018-08-17 12:29:00
Houari Boumediene (ALG) - Provence (MRS) AH1024 2018-08-16 18:57:00
Geneve Cointrin (GVA) - Houari Boumediene (ALG) AH2047 2018-08-16 17:58:00
Houari Boumediene (ALG) - Geneve Cointrin (GVA) AH2046 2018-08-16 12:53:00
Malpensa (MXP) - Houari Boumediene (ALG) AH2027 2018-08-15 14:23:00
Houari Boumediene (ALG) - Malpensa (MXP) AH2026 2018-08-15 12:14:00
Basel Mulhouse (MLH) - Mohamed Boudiaf Intl (CZL) AH1171 2018-08-14 14:41:00
Mohamed Boudiaf Intl (CZL) - Basel Mulhouse (MLH) AH1170 2018-08-14 11:47:00
Valencia (VLC) - Houari Boumediene (ALG) AH2009 2018-08-12 18:07:00
Houari Boumediene (ALG) - Valencia (VLC) AH2008 2018-08-12 16:42:00
???? N/A 2018-08-11 23:20:00
???? N/A 2018-08-11 22:48:00
???? AH4003 2018-08-11 18:33:00
???? AH4002 2018-08-11 16:50:00
Carthage (TUN) - Houari Boumediene (ALG) AH4001 2018-08-11 16:31:00
Houari Boumediene (ALG) - Carthage (TUN) AH4000 2018-08-11 08:18:00
Lisboa (LIS) - Houari Boumediene (ALG) AH3005 2018-08-10 19:05:00
Houari Boumediene (ALG) - Lisboa (LIS) AH3004 2018-08-10 17:44:00
Time Lat Lon Altitude Heading Speed Vertical Rate
2018-07-15 07:50:35 GMT 43.441013 5.216430 0 315 0 0
2018-07-15 07:50:24 GMT 43.440941 5.216511 0 315 5 0
2018-07-15 07:50:14 GMT 43.440781 5.216740 0 315 8 0
2018-07-15 07:50:04 GMT 43.440582 5.217037 0 315 7 0
2018-07-15 07:49:53 GMT 43.440308 5.217037 0 45 10 0
2018-07-15 07:49:43 GMT 43.439953 5.216558 0 45 12 0
2018-07-15 07:49:32 GMT 43.439568 5.216054 0 45 11 0
2018-07-15 07:49:22 GMT 43.439278 5.215616 0 59 9 0
2018-07-15 07:49:09 GMT 43.439209 5.215009 0 106 8 0
2018-07-15 07:48:58 GMT 43.439407 5.214566 0 135 9 0
2018-07-15 07:48:52 GMT 43.439575 5.214322 0 132 9 0
2018-07-15 07:48:41 GMT 43.439873 5.213879 0 135 10 0
2018-07-15 07:48:30 GMT 43.440205 5.213412 0 135 11 0
2018-07-15 07:48:20 GMT 43.440521 5.212947 0 135 9 0
2018-07-15 07:48:10 GMT 43.440781 5.212588 0 135 9 0
2018-07-15 07:47:59 GMT 43.441071 5.212179 0 135 10 0
2018-07-15 07:47:49 GMT 43.441395 5.211721 0 135 11 0
2018-07-15 07:47:39 GMT 43.441750 5.211224 0 135 12 0
2018-07-15 07:47:28 GMT 43.442150 5.210649 0 135 13 0
2018-07-15 07:47:17 GMT 43.442547 5.210021 0 126 13 0
2018-07-15 07:47:07 GMT 43.442863 5.209367 0 118 13 0
2018-07-15 07:46:57 GMT 43.443157 5.208669 0 123 13 0
2018-07-15 07:46:47 GMT 43.443501 5.208031 0 132 13 0
2018-07-15 07:46:29 GMT 43.444302 5.206881 0 135 16 0
2018-07-15 07:46:26 GMT 43.444462 5.206657 0 135 15 0
2018-07-15 07:46:16 GMT 43.444920 5.206003 0 135 15 0
2018-07-15 07:46:05 GMT 43.445366 5.205348 0 135 14 0
2018-07-15 07:45:54 GMT 43.445835 5.204693 0 132 14 0
2018-07-15 07:45:44 GMT 43.446213 5.204152 0 135 13 0
2018-07-15 07:45:34 GMT 43.446613 5.203575 0 126 13 0
2018-07-15 07:45:23 GMT 43.446636 5.202809 0 56 13 0
2018-07-15 07:45:13 GMT 43.446167 5.202266 0 8 18 0
2018-07-15 07:45:02 GMT 43.445412 5.202633 0 315 23 0
2018-07-15 07:44:52 GMT 43.444469 5.203956 0 315 37 0
2018-07-15 07:44:41 GMT 43.442852 5.206277 0 312 56 0
2018-07-15 07:44:32 GMT 43.440983 5.208941 0 315 84 0
2018-07-15 07:44:20 GMT 43.437241 5.214239 0 315 135 0
2018-07-15 07:44:09 GMT 43.432343 5.221189 -25 315 146 -320
2018-07-15 07:44:01 GMT 43.428131 5.227129 125 314 147 -960
2018-07-15 07:43:50 GMT 43.423141 5.234347 300 313 147 -1280
2018-07-15 07:43:40 GMT 43.418243 5.241245 500 314 145 -896
2018-07-15 07:43:29 GMT 43.413391 5.248143 650 314 145 -960
2018-07-15 07:43:19 GMT 43.408493 5.255297 825 315 146 -896
2018-07-15 07:43:08 GMT 43.403549 5.262132 1,050 315 151 -896
2018-07-15 07:43:05 GMT 43.401581 5.264878 1,050 315 151 -896
2018-07-15 07:42:58 GMT 43.398277 5.269710 1,175 314 156 -1088
2018-07-15 07:42:47 GMT 43.392838 5.277462 1,350 313 163 -1216
2018-07-15 07:42:36 GMT 43.387024 5.285765 1,600 315 165 -1344
2018-07-15 07:42:26 GMT 43.381657 5.293318 1,825 314 161 -1024
2018-07-15 07:42:15 GMT 43.376072 5.301165 1,925 316 159 -64
2018-07-15 07:42:05 GMT 43.370438 5.308751 1,925 316 160 -64
2018-07-15 07:41:54 GMT 43.364761 5.316467 1,950 317 163 -512
2018-07-15 07:41:46 GMT 43.359970 5.321918 2,025 326 164 -576
2018-07-15 07:41:43 GMT 43.358055 5.323595 2,075 331 166 -832
2018-07-15 07:41:33 GMT 43.350677 5.326836 2,150 357 170 -512
2018-07-15 07:41:25 GMT 43.344601 5.327061 2,225 0 175 -576
2018-07-15 07:41:21 GMT 43.341251 5.327127 2,275 0 177 -576
2018-07-15 07:41:15 GMT 43.336029 5.327219 2,325 0 181 -512
2018-07-15 07:41:10 GMT 43.332359 5.327323 2,375 359 184 -512
2018-07-15 07:41:04 GMT 43.327148 5.327475 2,425 359 188 -576
2018-07-15 07:41:00 GMT 43.323624 5.327539 2,450 359 191 -448
2018-07-15 07:40:53 GMT 43.317764 5.327730 2,525 359 196 -640
2018-07-15 07:40:49 GMT 43.313740 5.327846 2,550 359 200 -640
2018-07-15 07:40:42 GMT 43.307053 5.328114 2,650 359 203 -1280
2018-07-15 07:40:38 GMT 43.303310 5.328238 2,750 359 203 -1280
2018-07-15 07:40:33 GMT 43.298401 5.328433 2,850 359 204 -1344
2018-07-15 07:40:26 GMT 43.292450 5.328625 2,975 359 203 -1216
2018-07-15 07:40:22 GMT 43.288513 5.328752 3,025 359 205 -704
2018-07-15 07:40:18 GMT 43.283981 5.328816 3,100 0 207 -640
2018-07-15 07:40:10 GMT 43.276978 5.328880 3,200 0 209 -896
2018-07-15 07:40:07 GMT 43.273422 5.328827 3,250 0 209 -896
2018-07-15 07:40:02 GMT 43.268921 5.328880 3,325 0 209 -896
2018-07-15 07:39:56 GMT 43.263138 5.328892 3,400 0 210 -896
2018-07-15 07:39:51 GMT 43.258530 5.328944 3,475 359 211 -896
2018-07-15 07:39:45 GMT 43.252945 5.329136 3,550 358 211 -896
2018-07-15 07:39:41 GMT 43.248596 5.329391 3,625 357 211 -768
2018-07-15 07:39:35 GMT 43.242794 5.329808 3,700 358 213 -960
2018-07-15 07:39:31 GMT 43.238232 5.329742 3,775 4 213 -960
2018-07-15 07:39:24 GMT 43.232273 5.328369 3,875 16 214 -832
2018-07-15 07:39:20 GMT 43.228226 5.326453 3,925 23 214 -384
2018-07-15 07:39:14 GMT 43.222687 5.322301 3,950 35 217 -192
2018-07-15 07:39:10 GMT 43.219563 5.319083 3,950 37 218 0
2018-07-15 07:39:03 GMT 43.214069 5.313263 3,950 38 218 0
2018-07-15 07:38:59 GMT 43.211231 5.310255 3,950 38 218 0
2018-07-15 07:38:52 GMT 43.205200 5.303778 3,950 37 219 0
2018-07-15 07:38:49 GMT 43.203129 5.301492 3,950 37 219 0
2018-07-15 07:38:39 GMT 43.194855 5.292664 3,950 37 221 0
2018-07-15 07:38:31 GMT 43.188278 5.285601 3,950 37 225 0
2018-07-15 07:38:28 GMT 43.185699 5.282955 3,950 37 226 -64
2018-07-15 07:38:19 GMT 43.178085 5.274745 3,950 38 233 0
2018-07-15 07:38:10 GMT 43.170219 5.266440 3,950 37 242 0
2018-07-15 07:38:07 GMT 43.168076 5.264240 3,950 37 243 0
2018-07-15 07:37:58 GMT 43.159466 5.254996 3,950 38 254 64
2018-07-15 07:37:47 GMT 43.149830 5.244664 3,950 37 263 0
2018-07-15 07:37:37 GMT 43.140003 5.234266 3,950 37 265 0
2018-07-15 07:37:27 GMT 43.129765 5.223280 3,950 38 267 -256
2018-07-15 07:37:16 GMT 43.118916 5.211705 4,075 38 270 -1024
2018-07-15 07:37:05 GMT 43.108521 5.200621 4,250 38 274 -1024
2018-07-15 07:36:55 GMT 43.098267 5.189635 4,425 38 277 -960
2018-07-15 07:36:44 GMT 43.087509 5.178201 4,600 37 278 -1024
2018-07-15 07:36:33 GMT 43.076477 5.166449 4,775 38 280 -960
2018-07-15 07:36:23 GMT 43.065380 5.154681 4,950 37 281 -1024
2018-07-15 07:36:12 GMT 43.054550 5.143135 5,125 38 282 -1024
2018-07-15 07:36:03 GMT 43.044807 5.132708 5,300 38 282 -960
2018-07-15 07:36:00 GMT 43.042526 5.130354 5,325 38 283 -1024
2018-07-15 07:35:51 GMT 43.032421 5.119498 5,500 37 284 -1024
2018-07-15 07:35:43 GMT 43.024017 5.110559 5,625 37 285 -1024
2018-07-15 07:35:40 GMT 43.021317 5.107684 5,675 37 285 -1024
2018-07-15 07:35:33 GMT 43.013710 5.099618 5,800 37 285 -1024
2018-07-15 07:35:29 GMT 43.010357 5.095956 5,850 37 286 -1024
2018-07-15 07:35:22 GMT 43.002319 5.087500 5,975 37 286 -1024
2018-07-15 07:35:19 GMT 42.999279 5.084316 6,025 37 285 -1024
2018-07-15 07:35:12 GMT 42.991970 5.076403 6,150 38 285 -1024
2018-07-15 07:35:08 GMT 42.987900 5.072234 6,200 38 285 -1024
2018-07-15 07:35:01 GMT 42.980934 5.064763 6,325 37 286 -960
2018-07-15 07:34:58 GMT 42.977165 5.060774 6,375 37 286 -1024
2018-07-15 07:34:51 GMT 42.970596 5.053839 6,475 37 286 -1024
2018-07-15 07:34:46 GMT 42.965103 5.048026 6,575 37 287 -1024
2018-07-15 07:34:41 GMT 42.959335 5.041874 6,650 37 288 -960
2018-07-15 07:34:36 GMT 42.954262 5.036577 6,725 37 289 -1024
2018-07-15 07:34:31 GMT 42.948769 5.030692 6,825 37 290 -1024
2018-07-15 07:34:25 GMT 42.942623 5.024218 6,925 37 289 -1024
2018-07-15 07:34:20 GMT 42.937782 5.019052 6,975 37 290 -256
2018-07-15 07:34:14 GMT 42.931320 5.012257 7,000 37 289 0
2018-07-15 07:34:10 GMT 42.926563 5.007150 7,000 37 290 0
2018-07-15 07:34:03 GMT 42.919693 4.999993 7,000 37 290 0
2018-07-15 07:33:59 GMT 42.915436 4.995522 7,000 37 290 0
2018-07-15 07:33:49 GMT 42.904964 4.984327 7,000 37 290 0
2018-07-15 07:33:42 GMT 42.897217 4.976232 7,000 37 290 -64
2018-07-15 07:33:39 GMT 42.894058 4.972846 7,000 37 290 0
2018-07-15 07:33:31 GMT 42.885269 4.963597 7,000 37 289 0
2018-07-15 07:33:28 GMT 42.882248 4.960199 7,000 38 288 0
2018-07-15 07:33:18 GMT 42.872051 4.949472 6,975 37 288 64
2018-07-15 07:33:10 GMT 42.863159 4.940120 6,975 37 288 0
2018-07-15 07:33:07 GMT 42.860878 4.937701 6,975 37 288 0
2018-07-15 07:32:57 GMT 42.849659 4.925929 7,000 37 288 0
2018-07-15 07:32:47 GMT 42.839325 4.915074 7,000 37 288 0
2018-07-15 07:32:36 GMT 42.827965 4.903107 7,000 37 288 0
2018-07-15 07:32:26 GMT 42.817749 4.892301 7,000 37 288 0
2018-07-15 07:32:15 GMT 42.805710 4.879678 7,000 37 288 0
2018-07-15 07:32:05 GMT 42.795006 4.868412 6,975 37 289 0
2018-07-15 07:31:54 GMT 42.783417 4.856269 6,975 37 290 -64
2018-07-15 07:31:43 GMT 42.772011 4.844268 7,000 37 292 0
2018-07-15 07:31:35 GMT 42.762451 4.834172 7,050 37 293 -1024
2018-07-15 07:31:32 GMT 42.759998 4.831621 7,100 37 294 -1024
2018-07-15 07:31:24 GMT 42.751389 4.822551 7,225 37 295 -1024
2018-07-15 07:31:21 GMT 42.747940 4.818941 7,275 37 295 -1024
2018-07-15 07:31:14 GMT 42.740402 4.810990 7,400 37 295 -1024
2018-07-15 07:31:11 GMT 42.737141 4.807541 7,450 37 295 -1024
2018-07-15 07:31:04 GMT 42.729492 4.799465 7,550 37 295 -1024
2018-07-15 07:30:58 GMT 42.722626 4.792099 7,675 37 295 -1024
2018-07-15 07:30:49 GMT 42.713287 4.782299 7,800 37 296 -1024
2018-07-15 07:30:43 GMT 42.706787 4.775432 7,925 37 297 -1024
2018-07-15 07:30:39 GMT 42.702209 4.770626 7,975 37 297 -1024
2018-07-15 07:30:32 GMT 42.694839 4.762885 8,100 37 297 -1024
2018-07-15 07:30:22 GMT 42.683487 4.751025 8,275 37 297 -1088
2018-07-15 07:30:12 GMT 42.672668 4.739770 8,450 37 298 -1024
2018-07-15 07:30:02 GMT 42.661682 4.728337 8,600 37 300 -1088
2018-07-15 07:29:53 GMT 42.652542 4.718815 8,750 37 300 -1088
2018-07-15 07:29:50 GMT 42.648560 4.714633 8,800 37 301 -1024
2018-07-15 07:29:44 GMT 42.641968 4.707642 8,925 37 302 -1024
2018-07-15 07:29:41 GMT 42.639084 4.704645 8,950 37 302 -1024
2018-07-15 07:29:31 GMT 42.627419 4.692440 9,150 37 304 -1088
2018-07-15 07:29:20 GMT 42.615314 4.679793 9,325 37 306 -1088
2018-07-15 07:29:13 GMT 42.608002 4.672186 9,425 37 307 -1024
2018-07-15 07:29:10 GMT 42.604156 4.668191 9,500 37 307 -1088
2018-07-15 07:28:59 GMT 42.591431 4.655020 9,675 37 312 -1152
2018-07-15 07:28:50 GMT 42.580811 4.643971 9,850 37 315 -1088
2018-07-15 07:28:05 GMT 42.525467 4.586293 9,975 37 365 -256
2018-07-15 07:27:57 GMT 42.514252 4.574592 10,000 37 370 0
2018-07-15 07:27:52 GMT 42.508011 4.568077 10,000 37 370 0
2018-07-15 07:27:47 GMT 42.501774 4.561626 10,000 37 370 0
2018-07-15 07:27:42 GMT 42.494141 4.553705 10,000 37 370 0
2018-07-15 07:27:37 GMT 42.487244 4.546467 10,000 37 370 0
2018-07-15 07:27:31 GMT 42.477844 4.536779 10,000 37 370 0
2018-07-15 07:27:20 GMT 42.464813 4.523237 10,000 37 370 0
2018-07-15 07:27:15 GMT 42.457306 4.515443 10,000 37 370 0
2018-07-15 07:27:06 GMT 42.445038 4.502772 10,000 37 370 0
2018-07-15 07:27:01 GMT 42.438931 4.496410 9,975 37 370 0
2018-07-15 07:26:55 GMT 42.430222 4.487340 9,975 37 370 0
2018-07-15 07:26:51 GMT 42.422867 4.479739 9,975 37 370 0
2018-07-15 07:26:45 GMT 42.416473 4.473121 9,975 37 370 0
2018-07-15 07:26:35 GMT 42.402878 4.459014 9,975 37 370 0
2018-07-15 07:26:23 GMT 42.386372 4.441926 10,000 37 370 0
2018-07-15 07:26:18 GMT 42.379440 4.434731 10,000 37 370 0
2018-07-15 07:26:10 GMT 42.369518 4.424488 10,000 37 370 0
2018-07-15 07:26:00 GMT 42.355820 4.410262 10,000 37 370 0
2018-07-15 07:25:53 GMT 42.346298 4.400461 10,000 37 369 0
2018-07-15 07:25:43 GMT 42.332748 4.386479 10,000 37 369 0
2018-07-15 07:25:31 GMT 42.315800 4.368918 10,000 37 368 0
2018-07-15 07:25:24 GMT 42.304996 4.357740 10,000 37 367 0
2018-07-15 07:25:21 GMT 42.302856 4.355504 10,000 37 368 0
2018-07-15 07:25:18 GMT 42.298141 4.350586 10,000 37 367 0
2018-07-15 07:25:12 GMT 42.290588 4.342721 10,000 37 367 0
2018-07-15 07:25:09 GMT 42.285587 4.337556 10,000 37 367 0
2018-07-15 07:25:06 GMT 42.282093 4.333915 10,000 37 367 0
2018-07-15 07:25:01 GMT 42.275623 4.327208 10,000 37 367 0
2018-07-15 07:24:57 GMT 42.271179 4.322558 10,000 37 366 -64
2018-07-15 07:24:54 GMT 42.265148 4.316286 10,000 37 366 -64
2018-07-15 07:24:51 GMT 42.262573 4.313632 10,000 37 365 0
2018-07-15 07:24:46 GMT 42.253559 4.304341 10,000 37 365 0
2018-07-15 07:24:37 GMT 42.242706 4.293095 9,975 37 365 0
2018-07-15 07:24:34 GMT 42.239079 4.289331 10,000 37 365 0
2018-07-15 07:24:30 GMT 42.233959 4.284093 10,000 37 365 0
2018-07-15 07:24:26 GMT 42.227257 4.277131 10,000 37 365 0
2018-07-15 07:24:22 GMT 42.223892 4.273744 10,000 37 365 0
2018-07-15 07:23:55 GMT 42.185684 4.235102 10,000 36 364 0
2018-07-15 07:23:46 GMT 42.174957 4.224493 10,000 36 364 0
2018-07-15 07:23:41 GMT 42.167587 4.217189 10,000 36 365 0
2018-07-15 07:22:37 GMT 42.081390 4.124929 9,975 40 375 -64
2018-07-15 07:22:29 GMT 42.070770 4.112882 10,000 40 374 0
2018-07-15 07:22:24 GMT 42.065022 4.106460 9,975 40 375 -64
2018-07-15 07:22:18 GMT 42.056828 4.097134 9,975 40 374 0
2018-07-15 07:22:15 GMT 42.052963 4.092782 9,975 40 374 -64
2018-07-15 07:21:46 GMT 42.014786 4.049710 10,000 40 374 0
2018-07-15 07:21:19 GMT 41.978439 4.008824 9,975 39 374 0
2018-07-15 07:21:15 GMT 41.972580 4.002269 9,975 39 374 0
2018-07-15 07:21:11 GMT 41.967545 3.996589 9,975 39 374 0
2018-07-15 07:21:05 GMT 41.959953 3.988101 10,000 39 374 0
2018-07-15 07:21:00 GMT 41.953445 3.980796 10,000 39 374 0
2018-07-15 07:20:55 GMT 41.945614 3.972005 10,000 39 374 0
2018-07-15 07:20:50 GMT 41.939514 3.965170 10,000 40 374 0
2018-07-15 07:20:37 GMT 41.921223 3.944603 9,975 40 374 0
2018-07-15 07:20:31 GMT 41.914051 3.936555 9,975 40 374 0
2018-07-15 07:20:28 GMT 41.910606 3.932658 9,975 40 374 0
2018-07-15 07:20:25 GMT 41.907074 3.928611 9,975 40 374 0
2018-07-15 07:20:22 GMT 41.901901 3.922822 10,000 40 374 0
2018-07-15 07:20:15 GMT 41.893429 3.913241 10,000 40 373 0
2018-07-15 07:20:08 GMT 41.883327 3.901935 10,000 40 373 0
2018-07-15 07:20:04 GMT 41.878418 3.896464 10,000 40 373 0
2018-07-15 07:19:58 GMT 41.871132 3.888266 9,975 39 372 0
2018-07-15 07:19:55 GMT 41.867172 3.883859 10,000 39 372 0
2018-07-15 07:19:45 GMT 41.852604 3.867507 10,000 39 372 0
2018-07-15 07:19:37 GMT 41.843445 3.857325 10,000 39 372 0
2018-07-15 07:19:34 GMT 41.839462 3.852893 10,000 39 372 0
2018-07-15 07:19:22 GMT 41.823029 3.834478 10,000 39 372 0
2018-07-15 07:19:16 GMT 41.813919 3.824264 10,000 40 373 0
2018-07-15 07:19:13 GMT 41.810986 3.821007 10,000 40 373 0
2018-07-15 07:19:02 GMT 41.796413 3.804719 10,000 39 373 0
2018-07-15 07:18:50 GMT 41.780045 3.786475 9,975 39 373 0
2018-07-15 07:18:47 GMT 41.776611 3.782668 10,000 39 374 0
2018-07-15 07:18:34 GMT 41.759407 3.763584 10,000 39 374 0
2018-07-15 07:18:31 GMT 41.754181 3.757824 10,000 39 374 0
2018-07-15 07:18:27 GMT 41.749695 3.752830 10,000 39 374 0
2018-07-15 07:18:16 GMT 41.734772 3.736225 10,000 39 374 0
2018-07-15 07:18:09 GMT 41.724380 3.724740 10,000 39 373 0
2018-07-15 07:18:04 GMT 41.718796 3.718498 10,000 39 373 0
2018-07-15 07:17:57 GMT 41.709641 3.708333 10,000 39 373 0
2018-07-15 07:17:51 GMT 41.701633 3.699454 10,000 39 373 0
2018-07-15 07:17:45 GMT 41.693024 3.689908 10,000 39 373 0
2018-07-15 07:17:34 GMT 41.679104 3.674416 10,000 39 372 0
2018-07-15 07:17:26 GMT 41.669048 3.663302 10,000 39 370 0
2018-07-15 07:17:23 GMT 41.664532 3.658320 10,000 39 369 0
2018-07-15 07:17:11 GMT 41.649029 3.641137 9,975 39 368 0
2018-07-15 07:17:03 GMT 41.638508 3.629512 10,000 39 367 0
2018-07-15 07:17:00 GMT 41.635254 3.625925 10,000 39 367 0
2018-07-15 07:16:48 GMT 41.619232 3.608197 10,000 39 368 0
2018-07-15 07:16:41 GMT 41.610626 3.598584 10,000 40 368 0
2018-07-15 07:16:38 GMT 41.605499 3.592592 10,000 42 368 0
2018-07-15 07:16:32 GMT 41.598770 3.584102 10,000 44 369 0
2018-07-15 07:16:27 GMT 41.592888 3.576178 10,000 46 369 0
2018-07-15 07:16:20 GMT 41.584927 3.564233 10,000 50 370 0
2018-07-15 07:16:17 GMT 41.581146 3.558072 10,000 51 370 0
2018-07-15 07:16:11 GMT 41.574036 3.546029 10,000 52 370 0
2018-07-15 07:16:06 GMT 41.569885 3.539033 10,000 52 370 0
2018-07-15 07:16:01 GMT 41.564621 3.530045 10,000 52 370 0
2018-07-15 07:15:56 GMT 41.558945 3.520307 9,975 52 369 0
2018-07-15 07:15:49 GMT 41.550568 3.505887 9,975 52 370 0
2018-07-15 07:15:45 GMT 41.548050 3.501518 10,000 52 370 0
2018-07-15 07:15:40 GMT 41.542099 3.491225 10,000 52 370 0
2018-07-15 07:15:35 GMT 41.536743 3.481979 10,000 52 370 0
2018-07-15 07:15:31 GMT 41.531937 3.473677 9,975 52 370 0
2018-07-15 07:15:27 GMT 41.528824 3.468184 9,975 52 370 0
2018-07-15 07:15:24 GMT 41.525154 3.461843 10,000 52 370 0
2018-07-15 07:15:20 GMT 41.521385 3.455328 9,975 52 371 0
2018-07-15 07:15:17 GMT 41.518871 3.451048 9,975 51 372 0
2018-07-15 07:15:13 GMT 41.513981 3.442745 9,975 51 371 0
2018-07-15 07:15:09 GMT 41.509747 3.435527 9,975 51 371 0
2018-07-15 07:15:03 GMT 41.502960 3.424301 9,975 51 372 0
2018-07-15 07:14:58 GMT 41.497971 3.416061 9,975 51 372 0
2018-07-15 07:14:52 GMT 41.491745 3.405699 9,975 51 372 0
2018-07-15 07:14:47 GMT 41.486237 3.396564 10,000 51 372 0
2018-07-15 07:14:44 GMT 41.482086 3.389532 10,000 52 373 0
2018-07-15 07:14:41 GMT 41.479385 3.384788 10,000 53 372 -64
2018-07-15 07:14:38 GMT 41.475815 3.377984 10,000 65 372 0
2018-07-15 07:14:32 GMT 41.470688 3.365777 10,000 65 372 0
2018-07-15 07:14:27 GMT 41.467896 3.356898 10,000 70 372 0
2018-07-15 07:14:21 GMT 41.465103 3.344463 10,000 77 371 0
2018-07-15 07:14:15 GMT 41.463425 3.330263 10,000 85 368 0
2018-07-15 07:14:10 GMT 41.463181 3.318745 9,975 91 368 0
2018-07-15 07:14:04 GMT 41.463894 3.307268 9,975 98 366 0
2018-07-15 07:13:59 GMT 41.465801 3.294940 9,975 106 364 0
2018-07-15 07:13:54 GMT 41.468399 3.284538 9,975 111 363 0
2018-07-15 07:13:48 GMT 41.472839 3.272116 9,975 120 359 0
2018-07-15 07:13:43 GMT 41.477253 3.263003 10,000 127 357 0
2018-07-15 07:13:39 GMT 41.482819 3.254013 10,000 135 353 0
2018-07-15 07:13:31 GMT 41.490055 3.244991 10,000 141 350 0
2018-07-15 07:13:27 GMT 41.495827 3.239370 10,000 146 348 0
2018-07-15 07:13:22 GMT 41.504486 3.232983 10,000 156 343 0
2018-07-15 07:13:17 GMT 41.510349 3.229853 10,000 161 340 0
2018-07-15 07:13:14 GMT 41.515144 3.227873 10,000 167 337 0
2018-07-15 07:13:11 GMT 41.519577 3.226547 10,000 170 335 0
2018-07-15 07:13:06 GMT 41.526783 3.225254 10,000 175 332 0
2018-07-15 07:13:03 GMT 41.533035 3.225049 10,000 181 331 0
2018-07-15 07:12:59 GMT 41.536839 3.225318 10,000 186 328 0
2018-07-15 07:12:55 GMT 41.545498 3.227170 10,000 193 325 0
2018-07-15 07:12:50 GMT 41.552109 3.229853 10,000 201 322 64
2018-07-15 07:12:44 GMT 41.560135 3.234475 10,000 207 319 0
2018-07-15 07:12:36 GMT 41.570541 3.241542 10,000 207 319 0
2018-07-15 07:12:33 GMT 41.573990 3.243841 10,000 207 320 0
2018-07-15 07:12:29 GMT 41.578354 3.246834 10,000 207 320 0
2018-07-15 07:12:25 GMT 41.584442 3.250892 10,000 207 320 0
2018-07-15 07:12:22 GMT 41.588699 3.253763 9,975 207 321 0
2018-07-15 07:12:17 GMT 41.594513 3.257696 9,975 207 321 0
2018-07-15 07:12:14 GMT 41.598614 3.260448 9,975 207 321 0
2018-07-15 07:12:11 GMT 41.602249 3.262877 9,975 207 322 0
2018-07-15 07:12:04 GMT 41.613277 3.270285 9,975 207 322 0
2018-07-15 07:11:59 GMT 41.618351 3.273734 9,975 207 322 0
2018-07-15 07:11:55 GMT 41.623428 3.277119 10,000 207 322 0
2018-07-15 07:11:52 GMT 41.629440 3.281104 10,000 207 322 0
2018-07-15 07:11:49 GMT 41.632095 3.282915 10,000 207 322 0
2018-07-15 07:11:43 GMT 41.640381 3.288408 10,000 207 322 0
2018-07-15 07:11:38 GMT 41.646835 3.292590 10,000 207 322 0
2018-07-15 07:11:34 GMT 41.652145 3.296148 10,000 207 321 0
2018-07-15 07:11:31 GMT 41.657227 3.299519 10,000 207 319 0
2018-07-15 07:11:27 GMT 41.661648 3.302414 10,000 207 321 0
2018-07-15 07:11:23 GMT 41.668167 3.306697 10,000 207 321 0
2018-07-15 07:11:20 GMT 41.670956 3.308545 10,000 207 321 0
2018-07-15 07:11:13 GMT 41.680267 3.314677 10,000 207 321 0
2018-07-15 07:11:10 GMT 41.685471 3.318121 10,000 207 321 0
2018-07-15 07:11:05 GMT 41.691055 3.321804 10,000 207 321 0
2018-07-15 07:11:02 GMT 41.695721 3.324833 10,000 207 320 0
2018-07-15 07:10:59 GMT 41.698933 3.326941 10,000 207 320 0
2018-07-15 07:10:54 GMT 41.705544 3.331285 10,000 207 320 0
2018-07-15 07:10:51 GMT 41.709412 3.333851 10,000 207 319 0
2018-07-15 07:10:48 GMT 41.714344 3.337033 10,000 207 319 0
2018-07-15 07:10:41 GMT 41.724014 3.343402 10,000 207 318 0
2018-07-15 07:10:37 GMT 41.727448 3.345649 10,000 207 318 0
2018-07-15 07:10:31 GMT 41.735916 3.351205 10,000 206 317 0
2018-07-15 07:10:28 GMT 41.741623 3.354918 9,975 206 317 0
2018-07-15 07:10:20 GMT 41.750889 3.360922 9,975 206 317 0
2018-07-15 07:10:16 GMT 41.755783 3.364064 10,000 206 318 0
2018-07-15 07:10:10 GMT 41.763748 3.369245 10,000 206 318 0
2018-07-15 07:10:07 GMT 41.768391 3.372228 9,975 206 318 0
2018-07-15 07:10:03 GMT 41.773464 3.375485 9,975 206 318 0
2018-07-15 07:10:00 GMT 41.778351 3.378670 9,975 206 319 0
2018-07-15 07:09:54 GMT 41.784637 3.382703 10,000 206 319 0
2018-07-15 07:09:48 GMT 41.792496 3.387784 10,000 206 320 0
2018-07-15 07:09:43 GMT 41.799225 3.392029 10,000 205 321 0
2018-07-15 07:09:38 GMT 41.806515 3.396053 10,000 200 323 0
2018-07-15 07:09:33 GMT 41.813126 3.398672 10,000 193 326 0
2018-07-15 07:09:27 GMT 41.822250 3.400830 10,000 189 327 0
2018-07-15 07:09:22 GMT 41.830166 3.402440 10,000 189 327 0
2018-07-15 07:09:17 GMT 41.837814 3.403951 10,000 189 326 0
2018-07-15 07:09:11 GMT 41.847382 3.405887 10,000 189 324 0
2018-07-15 07:09:05 GMT 41.856903 3.407822 10,000 189 324 0
2018-07-15 07:09:01 GMT 41.861343 3.408758 10,000 189 324 0
2018-07-15 07:08:56 GMT 41.869827 3.410552 10,000 189 323 0
2018-07-15 07:08:50 GMT 41.877365 3.412129 10,000 190 324 0
2018-07-15 07:08:45 GMT 41.885651 3.413877 10,000 190 322 0
2018-07-15 07:08:40 GMT 41.893429 3.415534 10,000 190 320 0
2018-07-15 07:08:35 GMT 41.900574 3.417123 10,000 190 318 0
2018-07-15 07:08:29 GMT 41.908447 3.418808 10,000 190 318 -64
2018-07-15 07:08:23 GMT 41.917404 3.420836 10,025 190 317 -192
2018-07-15 07:08:20 GMT 41.921314 3.421730 9,950 190 318 640
2018-07-15 07:08:13 GMT 41.931835 3.424094 9,950 190 321 0
2018-07-15 07:08:08 GMT 41.939514 3.425754 9,975 190 325 0
2018-07-15 07:08:03 GMT 41.946533 3.427297 9,975 190 328 -128
2018-07-15 07:07:57 GMT 41.955872 3.429233 10,000 189 330 -192
2018-07-15 07:07:53 GMT 41.962555 3.430543 10,000 188 335 -128
2018-07-15 07:07:47 GMT 41.971729 3.432142 10,000 187 344 -384
2018-07-15 07:07:42 GMT 41.979317 3.433355 10,025 191 354 -1216
2018-07-15 07:07:35 GMT 41.990864 3.436230 10,150 194 356 -1536
2018-07-15 07:07:31 GMT 41.995983 3.438210 10,225 199 359 -1984
2018-07-15 07:07:28 GMT 42.001617 3.440892 10,375 202 360 -2496
2018-07-15 07:07:24 GMT 42.007278 3.444276 10,525 207 363 -2752
2018-07-15 07:07:20 GMT 42.013023 3.448430 10,700 211 364 -3264
2018-07-15 07:07:14 GMT 42.023544 3.458330 11,150 221 364 -4160
2018-07-15 07:07:09 GMT 42.028992 3.465037 11,450 224 364 -4416
2018-07-15 07:07:03 GMT 42.034435 3.473532 11,850 236 360 -5184
2018-07-15 07:06:57 GMT 42.040329 3.486162 12,425 245 356 -5504
2018-07-15 07:06:50 GMT 42.045364 3.500581 13,050 246 354 -5376
2018-07-15 07:06:47 GMT 42.046875 3.505013 13,250 246 354 -5312
2018-07-15 07:06:43 GMT 42.050354 3.515438 13,675 246 354 -4992
2018-07-15 07:06:39 GMT 42.052452 3.521629 14,225 246 352 -5376
2018-07-15 07:06:31 GMT 42.057495 3.536599 14,550 246 351 -5376
2018-07-15 07:06:25 GMT 42.061855 3.549542 15,100 246 351 -5056
2018-07-15 07:06:21 GMT 42.064362 3.556886 15,475 246 352 -4736
2018-07-15 07:06:18 GMT 42.066788 3.564065 15,625 246 352 -4736
2018-07-15 07:06:14 GMT 42.069397 3.571834 15,925 246 358 -3520
2018-07-15 07:06:10 GMT 42.072517 3.581160 16,200 246 357 -3520
2018-07-15 07:06:07 GMT 42.073929 3.585413 16,825 247 358 -4736
2018-07-15 07:06:00 GMT 42.078800 3.600258 16,925 247 358 -5120
2018-07-15 07:05:56 GMT 42.081501 3.608434 17,225 247 359 -4352
2018-07-15 07:05:45 GMT 42.088902 3.631365 18,000 247 362 -3904
2018-07-15 07:05:38 GMT 42.093277 3.645098 18,400 247 365 -3904
2018-07-15 07:05:35 GMT 42.095558 3.652188 18,625 247 367 -4032
2018-07-15 07:05:32 GMT 42.097652 3.658894 18,825 247 368 -3904
2018-07-15 07:05:27 GMT 42.100773 3.668603 19,100 247 370 -3776
2018-07-15 07:05:24 GMT 42.103134 3.676050 19,325 247 372 -3840
2018-07-15 07:05:19 GMT 42.106155 3.685414 19,600 247 375 -3840
2018-07-15 07:05:16 GMT 42.108353 3.692218 19,800 247 376 -3648
2018-07-15 07:05:12 GMT 42.111145 3.700832 20,025 247 378 -3008
2018-07-15 07:05:02 GMT 42.118931 3.724301 20,550 246 381 -3584
2018-07-15 07:04:54 GMT 42.123642 3.738410 20,925 246 382 -3264
2018-07-15 07:04:51 GMT 42.126114 3.745776 21,100 246 384 -2944
2018-07-15 07:04:43 GMT 42.132011 3.763520 21,475 247 387 -3200
2018-07-15 07:04:40 GMT 42.134125 3.769871 21,650 247 387 -3520
2018-07-15 07:04:36 GMT 42.136551 3.777362 21,825 247 389 -3200
2018-07-15 07:04:33 GMT 42.139366 3.786004 22,050 247 388 -3264
2018-07-15 07:04:29 GMT 42.142181 3.794653 22,250 247 389 -3200
2018-07-15 07:04:19 GMT 42.149559 3.817110 22,775 247 392 -3200
2018-07-15 07:04:13 GMT 42.153934 3.830588 23,075 247 395 -2880
2018-07-15 07:04:10 GMT 42.156097 3.837100 23,200 247 396 -2752
2018-07-15 07:04:07 GMT 42.157612 3.841830 23,300 247 397 -2624
2018-07-15 07:03:59 GMT 42.164108 3.861632 23,700 247 402 -3200
2018-07-15 07:03:56 GMT 42.165993 3.867379 23,825 247 402 -3072
2018-07-15 07:03:53 GMT 42.168320 3.874491 23,975 247 413 -2368
2018-07-15 07:03:50 GMT 42.171341 3.883729 24,125 247 407 -2496
2018-07-15 07:03:45 GMT 42.174278 3.892801 24,675 247 413 -2368
2018-07-15 07:03:42 GMT 42.177704 3.903330 24,550 247 411 -2816
2018-07-15 07:03:39 GMT 42.179169 3.907747 24,650 247 413 -2496
2018-07-15 07:03:34 GMT 42.182751 3.918606 24,800 246 416 -2688
2018-07-15 07:03:29 GMT 42.187363 3.932544 25,175 247 413 -5952
2018-07-15 07:03:25 GMT 42.190613 3.942406 25,625 247 410 -6656
2018-07-15 07:03:19 GMT 42.195328 3.956701 26,300 246 403 -6848
2018-07-15 07:03:16 GMT 42.196529 3.960124 26,475 245 402 -6592
2018-07-15 07:03:13 GMT 42.199230 3.967214 26,875 240 398 -6336
2018-07-15 07:03:10 GMT 42.202724 3.975390 27,200 239 397 -6208
2018-07-15 07:03:06 GMT 42.206406 3.983106 27,575 235 395 -5888
2018-07-15 07:03:03 GMT 42.209053 3.988101 27,800 234 394 -5696
2018-07-15 07:03:00 GMT 42.214050 3.996776 28,250 230 392 -5184
2018-07-15 07:02:57 GMT 42.215851 3.999534 28,325 229 392 -5184
2018-07-15 07:02:52 GMT 42.222275 4.008796 28,775 225 390 -6016
2018-07-15 07:02:47 GMT 42.231308 4.019436 29,450 217 387 -6080
2018-07-15 07:02:39 GMT 42.240196 4.027958 30,225 214 385 -4416
2018-07-15 07:02:36 GMT 42.245407 4.032607 30,325 214 385 -4032
2018-07-15 07:02:32 GMT 42.251678 4.038225 30,650 214 386 -2432
2018-07-15 07:02:29 GMT 42.255978 4.042075 30,650 214 386 -2432
2018-07-15 07:02:25 GMT 42.261051 4.046610 30,800 214 386 -2304
2018-07-15 07:02:20 GMT 42.269012 4.053827 31,575 215 385 -2304
2018-07-15 07:02:15 GMT 42.275665 4.059823 31,425 215 388 -2304
2018-07-15 07:02:10 GMT 42.283772 4.067241 31,325 215 388 -2240
2018-07-15 07:02:05 GMT 42.291367 4.074180 31,525 215 388 -2176
2018-07-15 07:02:01 GMT 42.296448 4.078799 31,725 214 389 -2624
2018-07-15 07:01:57 GMT 42.302719 4.084480 31,950 214 388 -3136
2018-07-15 07:01:54 GMT 42.306885 4.088287 31,950 214 388 -3392
2018-07-15 07:01:50 GMT 42.313004 4.093812 32,150 214 387 -3904
2018-07-15 07:01:47 GMT 42.318359 4.098667 32,400 214 386 -4224
2018-07-15 07:01:44 GMT 42.322826 4.102627 32,600 214 385 -3520
2018-07-15 07:01:41 GMT 42.327854 4.107226 32,775 214 386 -1920
2018-07-15 07:01:37 GMT 42.332603 4.111506 32,875 214 387 -1088
2018-07-15 07:01:33 GMT 42.339020 4.117251 32,975 214 388 64
2018-07-15 07:01:30 GMT 42.342751 4.120640 32,975 214 389 -384
2018-07-15 07:01:27 GMT 42.348862 4.126178 33,000 214 389 -128
2018-07-15 07:01:22 GMT 42.355133 4.131858 32,975 214 388 64
2018-07-15 07:01:19 GMT 42.359619 4.135916 33,000 214 388 0
2018-07-15 07:01:16 GMT 42.363510 4.139411 33,000 214 388 0
2018-07-15 07:01:12 GMT 42.369781 4.145029 32,975 214 388 0
2018-07-15 07:01:09 GMT 42.375294 4.150022 32,975 214 388 0
2018-07-15 07:01:05 GMT 42.382179 4.156217 32,975 214 387 0
2018-07-15 07:01:02 GMT 42.385895 4.159574 32,975 214 387 0
2018-07-15 07:00:58 GMT 42.390381 4.163631 32,975 214 387 0
2018-07-15 07:00:55 GMT 42.394657 4.167523 33,000 214 387 0
2018-07-15 07:00:51 GMT 42.401829 4.173974 32,975 214 387 0
2018-07-15 07:00:48 GMT 42.406296 4.177998 32,975 214 387 0
2018-07-15 07:00:44 GMT 42.412254 4.183364 32,975 214 388 0
2018-07-15 07:00:40 GMT 42.417480 4.188038 32,975 214 388 0
2018-07-15 07:00:37 GMT 42.421967 4.192096 32,975 214 388 0
2018-07-15 07:00:31 GMT 42.431534 4.200710 32,975 214 388 0
2018-07-15 07:00:28 GMT 42.435856 4.204570 33,000 215 386 0
2018-07-15 07:00:23 GMT 42.445267 4.213007 32,975 214 388 0
2018-07-15 07:00:20 GMT 42.447922 4.215442 33,000 214 387 0
2018-07-15 07:00:17 GMT 42.451813 4.218937 33,000 215 386 0
2018-07-15 07:00:11 GMT 42.460464 4.226740 33,000 214 387 0
2018-07-15 07:00:07 GMT 42.467606 4.233232 33,000 215 386 0
2018-07-15 07:00:03 GMT 42.472916 4.238038 32,975 214 386 0
2018-07-15 06:59:59 GMT 42.479416 4.243969 32,975 215 386 0
2018-07-15 06:59:56 GMT 42.483307 4.247464 33,000 215 386 0
2018-07-15 06:59:53 GMT 42.489487 4.253082 33,000 215 386 0
2018-07-15 06:59:48 GMT 42.495583 4.258671 33,000 215 385 -64
2018-07-15 06:59:45 GMT 42.499401 4.262184 33,000 215 385 0
2018-07-15 06:59:41 GMT 42.504986 4.267294 33,000 215 385 -64
2018-07-15 06:59:38 GMT 42.510014 4.271957 33,000 215 384 128
2018-07-15 06:59:35 GMT 42.514668 4.276300 33,000 215 384 0
2018-07-15 06:59:30 GMT 42.521851 4.282983 33,000 215 384 64
2018-07-15 06:59:27 GMT 42.525234 4.286073 33,000 215 384 -64
2018-07-15 06:59:24 GMT 42.529770 4.290286 33,000 215 384 -64
2018-07-15 06:59:20 GMT 42.535755 4.295846 33,000 215 383 384
2018-07-15 06:59:17 GMT 42.541622 4.301275 32,950 215 383 896
2018-07-15 06:59:14 GMT 42.544968 4.304393 32,925 215 383 896
2018-07-15 06:59:10 GMT 42.551422 4.310324 32,850 215 383 1472
2018-07-15 06:59:07 GMT 42.555817 4.314381 32,725 215 383 2496
2018-07-15 06:59:04 GMT 42.559498 4.317755 32,700 215 383 2112
2018-07-15 06:58:59 GMT 42.567307 4.324868 32,475 215 385 2816
2018-07-15 06:58:53 GMT 42.575317 4.332171 32,125 214 396 2880
2018-07-15 06:58:49 GMT 42.583649 4.339724 32,000 214 389 2816
2018-07-15 06:58:43 GMT 42.590881 4.346279 31,775 214 392 2752
2018-07-15 06:58:40 GMT 42.596008 4.350898 31,625 214 393 2496
2018-07-15 06:58:33 GMT 42.605865 4.359784 31,375 214 395 2624
2018-07-15 06:58:30 GMT 42.609821 4.363361 31,100 214 396 2880
2018-07-15 06:58:27 GMT 42.615143 4.368189 31,100 214 398 2752
2018-07-15 06:58:21 GMT 42.624813 4.376838 30,825 214 399 2752
2018-07-15 06:58:17 GMT 42.632355 4.383607 30,625 214 399 2944
2018-07-15 06:58:10 GMT 42.640873 4.391210 30,350 214 401 2752
2018-07-15 06:58:06 GMT 42.647717 4.397278 30,175 214 402 1920
2018-07-15 06:58:02 GMT 42.654186 4.403154 30,050 214 401 1344
2018-07-15 06:57:57 GMT 42.661915 4.410180 29,925 214 400 1856
2018-07-15 06:57:54 GMT 42.667130 4.414907 29,825 214 399 2112
2018-07-15 06:57:51 GMT 42.672501 4.419812 29,725 215 398 1024
2018-07-15 06:57:47 GMT 42.678589 4.425430 29,675 215 396 64
2018-07-15 06:57:41 GMT 42.687607 4.433795 29,675 215 391 448
2018-07-15 06:57:38 GMT 42.690308 4.436292 29,650 215 390 448
2018-07-15 06:57:35 GMT 42.694035 4.439754 29,625 215 387 192
2018-07-15 06:57:32 GMT 42.698914 4.444282 29,250 215 365 2112
2018-07-15 06:57:28 GMT 42.705208 4.450102 29,600 215 381 320
2018-07-15 06:57:24 GMT 42.710747 4.455212 29,575 215 378 640
2018-07-15 06:57:20 GMT 42.717079 4.461088 29,500 215 370 512
2018-07-15 06:57:15 GMT 42.724319 4.467815 29,475 215 368 960
2018-07-15 06:57:12 GMT 42.729836 4.472905 29,475 215 368 960
2018-07-15 06:57:09 GMT 42.732513 4.475368 29,450 215 365 2112
2018-07-15 06:57:05 GMT 42.738144 4.480549 29,150 215 365 2944
2018-07-15 06:57:02 GMT 42.742168 4.484274 29,150 215 365 2944
2018-07-15 06:56:57 GMT 42.749477 4.490981 28,875 215 367 3200
2018-07-15 06:56:53 GMT 42.754555 4.495644 28,700 215 368 3200
2018-07-15 06:56:48 GMT 42.761909 4.502414 28,425 214 370 3520
2018-07-15 06:56:44 GMT 42.767586 4.507588 28,200 214 372 3392
2018-07-15 06:56:38 GMT 42.776321 4.515568 27,825 214 379 3904
2018-07-15 06:56:35 GMT 42.779755 4.518752 27,725 215 375 3520
2018-07-15 06:56:32 GMT 42.785091 4.523621 27,525 214 376 3456
2018-07-15 06:56:24 GMT 42.796829 4.534357 27,050 214 379 3712
2018-07-15 06:56:13 GMT 42.812576 4.548851 26,275 215 382 2688
2018-07-15 06:56:09 GMT 42.817886 4.553705 26,275 215 382 2688
2018-07-15 06:56:03 GMT 42.828526 4.563642 26,025 215 382 1920
2018-07-15 06:55:52 GMT 42.844711 4.578488 25,625 215 378 3648
2018-07-15 06:55:43 GMT 42.856548 4.589342 24,800 215 387 4608
2018-07-15 06:55:32 GMT 42.872452 4.603974 24,175 215 392 4096
2018-07-15 06:55:23 GMT 42.885727 4.616174 23,650 214 395 2944
2018-07-15 06:55:19 GMT 42.892254 4.622171 23,450 214 395 2880
2018-07-15 06:55:14 GMT 42.901333 4.630541 23,125 215 394 2560
2018-07-15 06:55:11 GMT 42.904541 4.633420 23,100 215 394 2624
2018-07-15 06:55:00 GMT 42.920650 4.648263 22,675 214 392 2432
2018-07-15 06:54:49 GMT 42.937176 4.663369 22,225 215 390 2432
2018-07-15 06:54:41 GMT 42.949932 4.675206 21,800 215 386 2752
2018-07-15 06:54:38 GMT 42.953064 4.678068 21,800 215 386 2752
2018-07-15 06:54:29 GMT 42.967018 4.690966 21,400 215 383 2560
2018-07-15 06:54:19 GMT 42.982086 4.704895 20,475 215 375 2048
2018-07-15 06:54:08 GMT 42.997421 4.719139 20,550 215 376 2048
2018-07-15 06:53:55 GMT 43.015526 4.736023 20,000 215 369 2688
2018-07-15 06:53:50 GMT 43.023438 4.743413 19,775 215 368 2752
2018-07-15 06:53:46 GMT 43.028641 4.748329 19,600 215 368 2816
2018-07-15 06:53:42 GMT 43.033997 4.753248 19,400 215 366 3328
2018-07-15 06:53:34 GMT 43.044617 4.763212 19,000 215 366 3264
2018-07-15 06:53:27 GMT 43.054688 4.772601 18,600 215 366 3584
2018-07-15 06:53:23 GMT 43.060402 4.777941 18,375 215 366 3712
2018-07-15 06:53:15 GMT 43.072311 4.789081 17,850 215 367 3840
2018-07-15 06:53:06 GMT 43.084282 4.800175 17,300 215 370 4096
2018-07-15 06:53:03 GMT 43.088654 4.804219 17,100 215 370 3968
2018-07-15 06:52:56 GMT 43.098759 4.813581 16,600 215 372 4480
2018-07-15 06:52:53 GMT 43.103043 4.817570 16,400 215 374 4160
2018-07-15 06:52:45 GMT 43.114822 4.828491 15,850 215 376 3968
2018-07-15 06:52:40 GMT 43.121292 4.834495 15,575 215 377 3520
2018-07-15 06:52:34 GMT 43.129944 4.842543 15,225 215 377 4096
2018-07-15 06:52:29 GMT 43.137177 4.849250 14,900 215 378 3840
2018-07-15 06:52:24 GMT 43.144848 4.856349 14,575 215 378 3456
2018-07-15 06:52:17 GMT 43.155441 4.866177 14,200 215 378 3072
2018-07-15 06:52:13 GMT 43.160767 4.871129 14,025 215 377 3072
2018-07-15 06:52:08 GMT 43.168396 4.878185 13,750 215 374 2752
2018-07-15 06:52:02 GMT 43.177277 4.886425 13,475 215 372 2944
2018-07-15 06:51:55 GMT 43.186111 4.894601 13,200 215 370 2816
2018-07-15 06:51:51 GMT 43.192017 4.900094 13,000 215 368 2560
2018-07-15 06:51:45 GMT 43.200058 4.907554 12,775 215 365 2624
2018-07-15 06:51:40 GMT 43.207321 4.914289 12,550 215 362 2752
2018-07-15 06:51:36 GMT 43.213139 4.919717 12,350 215 361 2752
2018-07-15 06:51:30 GMT 43.221817 4.927751 12,050 215 358 3136
2018-07-15 06:51:25 GMT 43.228363 4.933883 11,825 215 357 2816
2018-07-15 06:51:20 GMT 43.235298 4.940382 11,600 215 355 2432
2018-07-15 06:51:15 GMT 43.241913 4.946594 11,425 215 352 2368
2018-07-15 06:51:10 GMT 43.248985 4.953330 11,250 215 349 1344
2018-07-15 06:51:04 GMT 43.256744 4.960710 11,150 215 341 896
2018-07-15 06:50:59 GMT 43.263321 4.966932 11,075 215 335 960
2018-07-15 06:50:53 GMT 43.270119 4.973406 10,975 215 326 1024
2018-07-15 06:50:49 GMT 43.275925 4.978914 10,900 215 320 960
2018-07-15 06:50:42 GMT 43.283249 4.985897 10,800 215 310 1216
2018-07-15 06:50:38 GMT 43.288055 4.990412 10,725 215 305 1152
2018-07-15 06:50:32 GMT 43.295563 4.997630 10,625 215 294 896
2018-07-15 06:50:28 GMT 43.299591 5.001398 10,550 215 289 1536
2018-07-15 06:50:21 GMT 43.307362 5.008654 10,275 215 282 3392
2018-07-15 06:50:18 GMT 43.310898 5.011937 10,100 215 282 3200
2018-07-15 06:50:07 GMT 43.321980 5.022256 9,600 215 278 3072
2018-07-15 06:50:00 GMT 43.330032 5.029776 9,225 215 276 3136
2018-07-15 06:49:57 GMT 43.333199 5.032719 9,075 215 276 3200
2018-07-15 06:49:47 GMT 43.343903 5.042790 8,550 215 274 3264
2018-07-15 06:49:36 GMT 43.354843 5.053264 8,025 216 272 2816
2018-07-15 06:49:26 GMT 43.365417 5.063548 7,600 216 265 2688
2018-07-15 06:49:15 GMT 43.375900 5.073959 7,175 217 261 1408
2018-07-15 06:49:05 GMT 43.385986 5.083139 6,975 209 246 1088
2018-07-15 06:48:54 GMT 43.396957 5.090119 6,775 198 229 2368
2018-07-15 06:48:44 GMT 43.406891 5.094143 6,400 196 225 2432
2018-07-15 06:48:34 GMT 43.417130 5.098114 5,925 196 222 2880
2018-07-15 06:48:23 GMT 43.428040 5.102319 5,425 196 218 3200
2018-07-15 06:48:12 GMT 43.438404 5.105961 4,850 193 223 3200
2018-07-15 06:48:01 GMT 43.449764 5.108773 4,375 192 219 2944
2018-07-15 06:47:49 GMT 43.460541 5.114966 3,925 216 216 1024
2018-07-15 06:47:39 GMT 43.467781 5.124795 3,775 237 195 1280
2018-07-15 06:47:29 GMT 43.471317 5.134735 3,550 254 184 1280
2018-07-15 06:47:26 GMT 43.472076 5.138599 3,475 259 179 896
2018-07-15 06:47:19 GMT 43.472809 5.146264 3,350 267 167 1600
2018-07-15 06:47:15 GMT 43.472809 5.150364 3,250 273 163 1600
2018-07-15 06:47:09 GMT 43.472351 5.156548 3,075 281 158 1920
2018-07-15 06:47:04 GMT 43.471458 5.161285 2,900 289 157 1984
2018-07-15 06:46:58 GMT 43.469830 5.166582 2,700 300 155 2496
2018-07-15 06:46:54 GMT 43.467964 5.170375 2,550 310 154 1984
2018-07-15 06:46:48 GMT 43.465313 5.174364 2,375 316 152 1600
2018-07-15 06:46:43 GMT 43.462875 5.177626 2,250 316 146 1920
2018-07-15 06:46:38 GMT 43.460285 5.181231 2,075 316 143 2112
2018-07-15 06:46:32 GMT 43.457794 5.184653 1,850 314 144 3328
2018-07-15 06:46:27 GMT 43.455185 5.188421 1,600 314 147 2880
2018-07-15 06:46:22 GMT 43.452759 5.192062 1,350 313 150 2688
2018-07-15 06:46:17 GMT 43.450649 5.195225 1,150 313 149 2880
2018-07-15 06:46:11 GMT 43.447624 5.199672 800 314 154 2880
2018-07-15 06:46:07 GMT 43.445621 5.202550 625 314 154 2304
2018-07-15 06:45:56 GMT 43.440445 5.209883 200 315 151 2688
2018-07-15 06:45:46 GMT 43.435410 5.216909 0 315 145
2018-07-15 06:45:36 GMT 43.431389 5.222609 0 315 100
2018-07-15 06:45:25 GMT 43.428909 5.226123 0 315 48
2018-07-15 06:45:14 GMT 43.427883 5.227579 0 312 22
2018-07-15 06:44:54 GMT 43.428040 5.229269 0 216 13
2018-07-15 06:44:42 GMT 43.428600 5.229556 0 174 12
2018-07-15 06:44:33 GMT 43.429012 5.229333 0 140 11
2018-07-15 06:44:21 GMT 43.429432 5.228773 0 135 12
2018-07-15 06:43:59 GMT 43.430351 5.227432 0 135 14
2018-07-15 06:43:51 GMT 43.430702 5.226942 0 135 14
2018-07-15 06:43:39 GMT 43.431210 5.226235 0 135 14
2018-07-15 06:43:14 GMT 43.432228 5.224781 0 132 14
2018-07-15 06:43:02 GMT 43.432743 5.224031 0 132 14
2018-07-15 06:42:58 GMT 43.432880 5.223839 0 132 14
2018-07-15 06:42:50 GMT 43.433250 5.223329 0 140 14
2018-07-15 06:42:40 GMT 43.433762 5.222936 0 165 13
2018-07-15 06:42:28 GMT 43.434334 5.222706 0 154 12
2018-07-15 06:42:19 GMT 43.434750 5.222397 0 149 11
2018-07-15 06:42:07 GMT 43.435215 5.222019 0 149 11
2018-07-15 06:41:57 GMT 43.435604 5.221700 0 151 11
2018-07-15 06:41:32 GMT 43.436714 5.220821 0 149 14
2018-07-15 06:41:27 GMT 43.437012 5.220582 0 149 15
2018-07-15 06:41:17 GMT 43.437561 5.220119 0 143 17

Making use of Plane Finder data

You are free to use the raw flight data, aircraft information and images provided in this report for your own purposes provided the data is correctly attributed to Plane Finder. We ask that you please credit Plane Finder and link to planefinder.net in close proximity to the content.

Optionally one of the following logos (no smaller then 150x24px) can be used and must link to planefinder.net

Embedding the Plane Finder map

You are welcome to embed the Plane Finder playback map on your website to offer visitors a more interactive experience. We suggest using the following HTML code:

<iframe src="//planefinder.net/data/report/AH1025-7T-VJR-7700-squawk-2018-07-15/map" width="800" height="600" seamless="seamless"></iframe>

Where our data comes from

Plane Finder has a global network of data feeds and antenna radars that receive data broadcast directly from aircraft. The primary technologies used are ADS-B and MLAT. We also show feeds from the FAA and a FLARM glider feed.

Click here to find out more about the Plane Finder network.

How we collect our data